This is the latest recevied weather packets stored in our database for station/object JH5EWP-13. If no packets are shown the sender has not sent any weather packets the latest 10 day(s).
| Time | Temp. | Humidity | Pressure | Rain* | Wind** | Luminosity | Snow |
|---|---|---|---|---|---|---|---|
| 1777798425 | 22.22° C | 73% | 990.6 hPa | 1.27 mm | - | - | - |
| 1777797525 | 22.22° C | 72% | 991 hPa | 1.78 mm | - | - | - |
| 1777796625 | 22.22° C | 72% | 991 hPa | 2.03 mm | - | - | - |
| 1777795725 | 21.67° C | 73% | 991.3 hPa | 1.78 mm | - | - | - |
| 1777794825 | 21.11° C | 74% | 991.1 hPa | 2.03 mm | - | - | - |
| 1777793924 | 21.11° C | 74% | 991.5 hPa | 1.27 mm | - | - | - |
| 1777793026 | 20.56° C | 77% | 991.8 hPa | 1.27 mm | - | - | - |
| 1777792126 | 20° C | 82% | 992.1 hPa | 1.78 mm | - | - | - |
| 1777791226 | 18.33° C | 83% | 992.6 hPa | 3.05 mm | - | - | - |
| 1777790326 | 18.33° C | 83% | 992.5 hPa | 3.81 mm | - | - | - |
| 1777789426 | 18.33° C | 83% | 993.2 hPa | 4.57 mm | - | - | - |
| 1777788525 | 17.78° C | 83% | 992.9 hPa | 4.32 mm | - | - | - |
| 1777787626 | 16.67° C | 84% | 993.2 hPa | 3.56 mm | - | - | - |
| 1777786726 | 16.11° C | 82% | 993.8 hPa | 2.79 mm | - | - | - |
| 1777785826 | 16.11° C | 80% | 993.7 hPa | 1.78 mm | - | - | - |
| 1777784926 | 16.11° C | 78% | 994.3 hPa | 1.02 mm | - | - | - |
| 1777784026 | 17.78° C | 72% | 994.1 hPa | 0.25 mm | - | - | - |
| 1777783124 | 18.89° C | 67% | 994.1 hPa | 0 mm | - | - | - |
| 1777782224 | 21.11° C | 61% | 994.3 hPa | 0 mm | - | - | - |
| 1777781324 | 21.11° C | 60% | 994.6 hPa | 0 mm | - | - | - |
| 1777780425 | 20.56° C | 60% | 995.1 hPa | 0 mm | - | - | - |
| 1777779525 | 20° C | 61% | 995.5 hPa | 0 mm | - | - | - |
| 1777778626 | 20° C | 60% | 995.8 hPa | 0 mm | - | - | - |
| 1777777726 | 20° C | 60% | 996.4 hPa | 0 mm | - | - | - |
| 1777776826 | 19.44° C | 62% | 996.9 hPa | 0 mm | - | - | - |
* Rain latest hour (hover to see other rain measurements)
** Current wind speed in m/s (hover to see current wind gust speed)